Terminal Aerodrome Forecast
Issued by NWS

Home | Current Version | Previous Version | Text Only | Print | Product List | Glossary On
Versions: 1 2 3 4 5 6 7 8 9 10 11 12 13 14 15 16 17 18
000
FTUS41 KPBZ 282300
TAFLBE
TAF
KLBE 282320Z 0100/0124 03005KT P6SM SCT120
     FM010500 11006KT P6SM OVC050
     FM010900 14006KT 1SM -SN OVC015
     FM011600 19005KT 3SM -RASN OVC006=

USA.gov is the U.S. government's official web portal to all federal, state and local government web resources and services.